sensor_id;sensor_type;location;lat;lon;timestamp;P1;durP1;ratioP1;P2;durP2;ratioP2
41512;SDS011;27244;59.940;30.280;2023-07-30T00:02:07;2.45;;;1.60;;
41512;SDS011;27244;59.940;30.280;2023-07-30T00:04:34;2.47;;;1.48;;
41512;SDS011;27244;59.940;30.280;2023-07-30T00:07:01;2.67;;;1.40;;
41512;SDS011;27244;59.940;30.280;2023-07-30T00:09:28;2.30;;;1.40;;
41512;SDS011;27244;59.940;30.280;2023-07-30T00:11:56;2.63;;;1.48;;
41512;SDS011;27244;59.940;30.280;2023-07-30T00:14:23;2.85;;;2.15;;
41512;SDS011;27244;59.940;30.280;2023-07-30T00:16:51;2.17;;;1.58;;
41512;SDS011;27244;59.940;30.280;2023-07-30T00:19:18;2.25;;;1.48;;
41512;SDS011;27244;59.940;30.280;2023-07-30T00:21:46;4.28;;;2.10;;
41512;SDS011;27244;59.940;30.280;2023-07-30T00:24:14;2.47;;;1.65;;
41512;SDS011;27244;59.940;30.280;2023-07-30T00:26:41;3.30;;;1.63;;
41512;SDS011;27244;59.940;30.280;2023-07-30T00:29:08;2.67;;;1.70;;
41512;SDS011;27244;59.940;30.280;2023-07-30T00:31:36;3.25;;;1.80;;
41512;SDS011;27244;59.940;30.280;2023-07-30T00:34:06;3.90;;;1.90;;
41512;SDS011;27244;59.940;30.280;2023-07-30T00:36:40;3.08;;;1.70;;
41512;SDS011;27244;59.940;30.280;2023-07-30T00:39:07;4.57;;;1.80;;
41512;SDS011;27244;59.940;30.280;2023-07-30T00:41:36;2.78;;;1.60;;
41512;SDS011;27244;59.940;30.280;2023-07-30T00:44:04;2.33;;;1.50;;
41512;SDS011;27244;59.940;30.280;2023-07-30T00:46:31;2.58;;;1.65;;
41512;SDS011;27244;59.940;30.280;2023-07-30T00:48:58;3.15;;;1.88;;
41512;SDS011;27244;59.940;30.280;2023-07-30T00:51:27;2.97;;;1.63;;
41512;SDS011;27244;59.940;30.280;2023-07-30T00:53:56;3.58;;;1.80;;
41512;SDS011;27244;59.940;30.280;2023-07-30T00:56:23;2.78;;;1.58;;
41512;SDS011;27244;59.940;30.280;2023-07-30T00:58:50;2.63;;;1.70;;
41512;SDS011;27244;59.940;30.280;2023-07-30T01:01:19;4.13;;;1.70;;
41512;SDS011;27244;59.940;30.280;2023-07-30T01:03:50;2.80;;;1.52;;
41512;SDS011;27244;59.940;30.280;2023-07-30T01:06:17;2.55;;;1.60;;
41512;SDS011;27244;59.940;30.280;2023-07-30T01:08:46;4.80;;;1.50;;
41512;SDS011;27244;59.940;30.280;2023-07-30T01:11:14;5.45;;;2.35;;
41512;SDS011;27244;59.940;30.280;2023-07-30T01:13:42;6.55;;;2.47;;
41512;SDS011;27244;59.940;30.280;2023-07-30T01:16:09;5.65;;;2.05;;
41512;SDS011;27244;59.940;30.280;2023-07-30T01:18:37;6.88;;;1.58;;
41512;SDS011;27244;59.940;30.280;2023-07-30T01:21:06;7.88;;;1.80;;
41512;SDS011;27244;59.940;30.280;2023-07-30T01:23:33;5.90;;;1.40;;
41512;SDS011;27244;59.940;30.280;2023-07-30T01:26:02;7.63;;;1.70;;
41512;SDS011;27244;59.940;30.280;2023-07-30T01:28:35;4.55;;;1.65;;
41512;SDS011;27244;59.940;30.280;2023-07-30T01:31:04;6.38;;;1.70;;
41512;SDS011;27244;59.940;30.280;2023-07-30T01:33:33;2.58;;;1.27;;
41512;SDS011;27244;59.940;30.280;2023-07-30T01:36:00;5.40;;;1.55;;
41512;SDS011;27244;59.940;30.280;2023-07-30T01:38:30;5.15;;;1.70;;
41512;SDS011;27244;59.940;30.280;2023-07-30T01:40:58;4.18;;;1.60;;
41512;SDS011;27244;59.940;30.280;2023-07-30T01:43:25;3.97;;;1.70;;
41512;SDS011;27244;59.940;30.280;2023-07-30T01:45:52;5.00;;;1.48;;
41512;SDS011;27244;59.940;30.280;2023-07-30T01:48:19;4.00;;;1.70;;
41512;SDS011;27244;59.940;30.280;2023-07-30T01:50:46;3.28;;;1.65;;
41512;SDS011;27244;59.940;30.280;2023-07-30T01:53:14;3.90;;;1.70;;
41512;SDS011;27244;59.940;30.280;2023-07-30T01:55:43;5.00;;;1.73;;
41512;SDS011;27244;59.940;30.280;2023-07-30T01:58:11;5.28;;;1.80;;
41512;SDS011;27244;59.940;30.280;2023-07-30T02:00:39;4.30;;;1.30;;
41512;SDS011;27244;59.940;30.280;2023-07-30T02:03:06;2.60;;;1.40;;
41512;SDS011;27244;59.940;30.280;2023-07-30T02:05:33;4.72;;;1.70;;
41512;SDS011;27244;59.940;30.280;2023-07-30T02:08:00;2.88;;;1.58;;
41512;SDS011;27244;59.940;30.280;2023-07-30T02:10:30;3.42;;;1.73;;
41512;SDS011;27244;59.940;30.280;2023-07-30T02:12:58;4.25;;;1.73;;
41512;SDS011;27244;59.940;30.280;2023-07-30T02:15:25;4.15;;;1.40;;
41512;SDS011;27244;59.940;30.280;2023-07-30T02:17:52;2.67;;;1.30;;
41512;SDS011;27244;59.940;30.280;2023-07-30T02:20:20;2.63;;;1.52;;
41512;SDS011;27244;59.940;30.280;2023-07-30T02:22:47;4.97;;;1.67;;
41512;SDS011;27244;59.940;30.280;2023-07-30T02:25:14;6.25;;;1.90;;
41512;SDS011;27244;59.940;30.280;2023-07-30T02:27:41;3.75;;;1.58;;
41512;SDS011;27244;59.940;30.280;2023-07-30T02:30:10;3.53;;;1.40;;
41512;SDS011;27244;59.940;30.280;2023-07-30T02:32:37;3.45;;;1.35;;
41512;SDS011;27244;59.940;30.280;2023-07-30T02:35:04;2.22;;;1.45;;
41512;SDS011;27244;59.940;30.280;2023-07-30T02:37:32;2.38;;;1.30;;
41512;SDS011;27244;59.940;30.280;2023-07-30T02:40:00;4.07;;;1.30;;
41512;SDS011;27244;59.940;30.280;2023-07-30T02:42:30;2.17;;;1.40;;
41512;SDS011;27244;59.940;30.280;2023-07-30T02:44:57;3.58;;;1.33;;
41512;SDS011;27244;59.940;30.280;2023-07-30T02:47:25;2.90;;;1.23;;
41512;SDS011;27244;59.940;30.280;2023-07-30T02:49:52;4.20;;;1.38;;
41512;SDS011;27244;59.940;30.280;2023-07-30T02:52:19;2.65;;;1.30;;
41512;SDS011;27244;59.940;30.280;2023-07-30T02:54:47;3.72;;;1.27;;
41512;SDS011;27244;59.940;30.280;2023-07-30T02:57:14;2.15;;;1.20;;
41512;SDS011;27244;59.940;30.280;2023-07-30T02:59:41;3.97;;;1.20;;
41512;SDS011;27244;59.940;30.280;2023-07-30T03:02:08;3.83;;;1.45;;
41512;SDS011;27244;59.940;30.280;2023-07-30T03:04:36;4.85;;;1.42;;
41512;SDS011;27244;59.940;30.280;2023-07-30T03:07:04;2.30;;;1.25;;
41512;SDS011;27244;59.940;30.280;2023-07-30T03:09:31;3.03;;;1.30;;
41512;SDS011;27244;59.940;30.280;2023-07-30T03:11:59;3.08;;;1.23;;
41512;SDS011;27244;59.940;30.280;2023-07-30T03:14:26;1.98;;;1.08;;
41512;SDS011;27244;59.940;30.280;2023-07-30T03:16:53;2.28;;;1.30;;
41512;SDS011;27244;59.940;30.280;2023-07-30T03:19:20;2.42;;;1.10;;
41512;SDS011;27244;59.940;30.280;2023-07-30T03:21:49;2.60;;;1.20;;
41512;SDS011;27244;59.940;30.280;2023-07-30T03:24:16;2.03;;;0.95;;
41512;SDS011;27244;59.940;30.280;2023-07-30T03:26:43;4.43;;;1.35;;
41512;SDS011;27244;59.940;30.280;2023-07-30T03:29:10;2.30;;;1.13;;
41512;SDS011;27244;59.940;30.280;2023-07-30T03:31:37;1.67;;;1.00;;
41512;SDS011;27244;59.940;30.280;2023-07-30T03:34:05;5.40;;;1.27;;
41512;SDS011;27244;59.940;30.280;2023-07-30T03:36:32;3.45;;;1.40;;
41512;SDS011;27244;59.940;30.280;2023-07-30T03:39:00;4.68;;;1.15;;
41512;SDS011;27244;59.940;30.280;2023-07-30T03:41:27;1.95;;;0.93;;
41512;SDS011;27244;59.940;30.280;2023-07-30T03:43:55;6.65;;;1.23;;
41512;SDS011;27244;59.940;30.280;2023-07-30T03:46:22;3.63;;;1.15;;
41512;SDS011;27244;59.940;30.280;2023-07-30T03:48:49;2.78;;;1.70;;
41512;SDS011;27244;59.940;30.280;2023-07-30T03:51:16;3.72;;;1.23;;
41512;SDS011;27244;59.940;30.280;2023-07-30T03:53:43;1.45;;;1.00;;
41512;SDS011;27244;59.940;30.280;2023-07-30T03:56:12;1.98;;;1.05;;
41512;SDS011;27244;59.940;30.280;2023-07-30T03:58:39;3.28;;;1.17;;
41512;SDS011;27244;59.940;30.280;2023-07-30T04:01:06;1.33;;;0.93;;
41512;SDS011;27244;59.940;30.280;2023-07-30T04:03:34;4.55;;;1.20;;
41512;SDS011;27244;59.940;30.280;2023-07-30T04:06:01;2.33;;;1.17;;
41512;SDS011;27244;59.940;30.280;2023-07-30T04:08:28;2.15;;;1.40;;
41512;SDS011;27244;59.940;30.280;2023-07-30T04:10:55;2.70;;;1.00;;
41512;SDS011;27244;59.940;30.280;2023-07-30T04:13:24;2.75;;;1.02;;
41512;SDS011;27244;59.940;30.280;2023-07-30T04:15:51;3.90;;;1.30;;
41512;SDS011;27244;59.940;30.280;2023-07-30T04:18:18;4.15;;;1.02;;
41512;SDS011;27244;59.940;30.280;2023-07-30T04:20:45;3.05;;;1.30;;
41512;SDS011;27244;59.940;30.280;2023-07-30T04:23:13;2.53;;;0.90;;
41512;SDS011;27244;59.940;30.280;2023-07-30T04:25:40;1.60;;;1.00;;
41512;SDS011;27244;59.940;30.280;2023-07-30T04:28:07;2.53;;;1.10;;
41512;SDS011;27244;59.940;30.280;2023-07-30T04:30:36;4.00;;;1.23;;
41512;SDS011;27244;59.940;30.280;2023-07-30T04:33:06;3.38;;;1.10;;
41512;SDS011;27244;59.940;30.280;2023-07-30T04:35:35;2.17;;;1.00;;
41512;SDS011;27244;59.940;30.280;2023-07-30T04:38:02;2.33;;;1.20;;
41512;SDS011;27244;59.940;30.280;2023-07-30T04:40:29;3.15;;;1.20;;
41512;SDS011;27244;59.940;30.280;2023-07-30T04:42:56;1.92;;;1.02;;
41512;SDS011;27244;59.940;30.280;2023-07-30T04:45:23;3.40;;;1.00;;
41512;SDS011;27244;59.940;30.280;2023-07-30T04:47:52;2.47;;;1.40;;
41512;SDS011;27244;59.940;30.280;2023-07-30T04:50:19;2.17;;;1.27;;
41512;SDS011;27244;59.940;30.280;2023-07-30T04:52:46;2.10;;;1.30;;
41512;SDS011;27244;59.940;30.280;2023-07-30T04:55:14;3.70;;;1.50;;
41512;SDS011;27244;59.940;30.280;2023-07-30T04:57:41;2.13;;;1.30;;
41512;SDS011;27244;59.940;30.280;2023-07-30T05:00:08;3.28;;;1.00;;
41512;SDS011;27244;59.940;30.280;2023-07-30T05:02:36;1.40;;;1.30;;
41512;SDS011;27244;59.940;30.280;2023-07-30T05:05:05;3.13;;;1.25;;
41512;SDS011;27244;59.940;30.280;2023-07-30T05:07:32;2.33;;;1.35;;
41512;SDS011;27244;59.940;30.280;2023-07-30T05:09:59;2.13;;;1.27;;
41512;SDS011;27244;59.940;30.280;2023-07-30T05:12:26;1.95;;;1.35;;
41512;SDS011;27244;59.940;30.280;2023-07-30T05:14:53;2.65;;;1.33;;
41512;SDS011;27244;59.940;30.280;2023-07-30T05:17:21;3.65;;;1.50;;
41512;SDS011;27244;59.940;30.280;2023-07-30T05:19:48;2.17;;;1.20;;
41512;SDS011;27244;59.940;30.280;2023-07-30T05:22:16;3.17;;;1.38;;
41512;SDS011;27244;59.940;30.280;2023-07-30T05:24:43;3.47;;;1.65;;
41512;SDS011;27244;59.940;30.280;2023-07-30T05:27:10;3.28;;;1.52;;
41512;SDS011;27244;59.940;30.280;2023-07-30T05:29:37;5.00;;;1.20;;
41512;SDS011;27244;59.940;30.280;2023-07-30T05:32:05;3.65;;;1.75;;
41512;SDS011;27244;59.940;30.280;2023-07-30T05:34:33;1.92;;;1.23;;
41512;SDS011;27244;59.940;30.280;2023-07-30T05:37:00;4.10;;;1.50;;
41512;SDS011;27244;59.940;30.280;2023-07-30T05:39:29;3.28;;;1.55;;
41512;SDS011;27244;59.940;30.280;2023-07-30T05:41:56;5.95;;;1.60;;
41512;SDS011;27244;59.940;30.280;2023-07-30T05:44:23;2.85;;;1.55;;
41512;SDS011;27244;59.940;30.280;2023-07-30T05:46:50;2.45;;;1.38;;
41512;SDS011;27244;59.940;30.280;2023-07-30T05:49:17;1.88;;;1.20;;
41512;SDS011;27244;59.940;30.280;2023-07-30T05:51:44;2.22;;;1.40;;
41512;SDS011;27244;59.940;30.280;2023-07-30T05:54:12;2.05;;;1.30;;
41512;SDS011;27244;59.940;30.280;2023-07-30T05:56:40;3.00;;;1.60;;
41512;SDS011;27244;59.940;30.280;2023-07-30T05:59:07;4.03;;;1.58;;
41512;SDS011;27244;59.940;30.280;2023-07-30T06:01:34;2.78;;;1.52;;
41512;SDS011;27244;59.940;30.280;2023-07-30T06:04:01;2.65;;;1.30;;
41512;SDS011;27244;59.940;30.280;2023-07-30T06:06:28;2.83;;;1.60;;
41512;SDS011;27244;59.940;30.280;2023-07-30T06:08:56;1.95;;;1.30;;
41512;SDS011;27244;59.940;30.280;2023-07-30T06:11:23;2.53;;;1.38;;
41512;SDS011;27244;59.940;30.280;2023-07-30T06:13:51;7.05;;;1.80;;
41512;SDS011;27244;59.940;30.280;2023-07-30T06:16:18;4.97;;;1.48;;
41512;SDS011;27244;59.940;30.280;2023-07-30T06:18:46;2.30;;;1.45;;
41512;SDS011;27244;59.940;30.280;2023-07-30T06:21:13;2.33;;;1.40;;
41512;SDS011;27244;59.940;30.280;2023-07-30T06:23:40;3.17;;;1.40;;
41512;SDS011;27244;59.940;30.280;2023-07-30T06:26:07;2.22;;;1.70;;
41512;SDS011;27244;59.940;30.280;2023-07-30T06:28:34;2.78;;;1.33;;
41512;SDS011;27244;59.940;30.280;2023-07-30T06:31:03;10.88;;;1.90;;
41512;SDS011;27244;59.940;30.280;2023-07-30T06:33:30;2.40;;;1.40;;
41512;SDS011;27244;59.940;30.280;2023-07-30T06:35:57;4.57;;;1.75;;
41512;SDS011;27244;59.940;30.280;2023-07-30T06:38:24;2.22;;;1.23;;
41512;SDS011;27244;59.940;30.280;2023-07-30T06:40:52;1.73;;;1.38;;
41512;SDS011;27244;59.940;30.280;2023-07-30T06:43:19;2.60;;;1.70;;
41512;SDS011;27244;59.940;30.280;2023-07-30T06:45:46;4.03;;;1.70;;
41512;SDS011;27244;59.940;30.280;2023-07-30T06:48:14;3.08;;;1.50;;
41512;SDS011;27244;59.940;30.280;2023-07-30T06:50:41;2.50;;;1.48;;
41512;SDS011;27244;59.940;30.280;2023-07-30T06:53:09;2.55;;;1.30;;
41512;SDS011;27244;59.940;30.280;2023-07-30T06:55:36;2.90;;;1.27;;
41512;SDS011;27244;59.940;30.280;2023-07-30T06:58:03;2.70;;;1.60;;
41512;SDS011;27244;59.940;30.280;2023-07-30T07:00:30;2.20;;;1.35;;
41512;SDS011;27244;59.940;30.280;2023-07-30T07:02:58;2.72;;;1.50;;
41512;SDS011;27244;59.940;30.280;2023-07-30T07:05:26;2.60;;;1.10;;
41512;SDS011;27244;59.940;30.280;2023-07-30T07:07:53;2.22;;;1.40;;
41512;SDS011;27244;59.940;30.280;2023-07-30T07:10:20;4.03;;;1.60;;
41512;SDS011;27244;59.940;30.280;2023-07-30T07:12:47;2.70;;;1.70;;
41512;SDS011;27244;59.940;30.280;2023-07-30T07:15:15;2.55;;;1.55;;
41512;SDS011;27244;59.940;30.280;2023-07-30T07:17:42;2.05;;;1.30;;
41512;SDS011;27244;59.940;30.280;2023-07-30T07:20:09;1.95;;;1.55;;
41512;SDS011;27244;59.940;30.280;2023-07-30T07:22:38;2.30;;;1.40;;
41512;SDS011;27244;59.940;30.280;2023-07-30T07:25:05;2.47;;;1.52;;
41512;SDS011;27244;59.940;30.280;2023-07-30T07:27:32;4.00;;;1.65;;
41512;SDS011;27244;59.940;30.280;2023-07-30T07:29:59;2.08;;;1.30;;
41512;SDS011;27244;59.940;30.280;2023-07-30T07:32:27;3.78;;;1.83;;
41512;SDS011;27244;59.940;30.280;2023-07-30T07:34:54;2.22;;;1.73;;
41512;SDS011;27244;59.940;30.280;2023-07-30T07:37:21;2.33;;;1.50;;
41512;SDS011;27244;59.940;30.280;2023-07-30T07:39:49;3.40;;;1.48;;
41512;SDS011;27244;59.940;30.280;2023-07-30T07:42:17;2.60;;;1.38;;
41512;SDS011;27244;59.940;30.280;2023-07-30T07:44:44;2.28;;;1.70;;
41512;SDS011;27244;59.940;30.280;2023-07-30T07:47:11;4.72;;;1.70;;
41512;SDS011;27244;59.940;30.280;2023-07-30T07:49:38;4.10;;;1.80;;
41512;SDS011;27244;59.940;30.280;2023-07-30T07:52:06;4.38;;;1.60;;
41512;SDS011;27244;59.940;30.280;2023-07-30T07:54:33;5.32;;;1.63;;
41512;SDS011;27244;59.940;30.280;2023-07-30T07:57:02;3.25;;;1.52;;
41512;SDS011;27244;59.940;30.280;2023-07-30T07:59:30;2.20;;;1.40;;
41512;SDS011;27244;59.940;30.280;2023-07-30T08:01:57;3.72;;;1.70;;
41512;SDS011;27244;59.940;30.280;2023-07-30T08:04:24;4.25;;;1.65;;
41512;SDS011;27244;59.940;30.280;2023-07-30T08:06:51;3.97;;;1.67;;
41512;SDS011;27244;59.940;30.280;2023-07-30T08:09:18;5.43;;;1.60;;
41512;SDS011;27244;59.940;30.280;2023-07-30T08:11:45;5.57;;;1.80;;
41512;SDS011;27244;59.940;30.280;2023-07-30T08:14:14;3.08;;;1.60;;
41512;SDS011;27244;59.940;30.280;2023-07-30T08:16:41;2.33;;;1.45;;
41512;SDS011;27244;59.940;30.280;2023-07-30T08:19:08;2.53;;;1.50;;
41512;SDS011;27244;59.940;30.280;2023-07-30T08:21:35;3.08;;;1.30;;
41512;SDS011;27244;59.940;30.280;2023-07-30T08:24:02;3.33;;;1.45;;
41512;SDS011;27244;59.940;30.280;2023-07-30T08:26:29;3.38;;;1.38;;
41512;SDS011;27244;59.940;30.280;2023-07-30T08:28:58;2.10;;;1.17;;
41512;SDS011;27244;59.940;30.280;2023-07-30T08:31:26;2.83;;;1.20;;
41512;SDS011;27244;59.940;30.280;2023-07-30T08:33:53;3.45;;;1.50;;
41512;SDS011;27244;59.940;30.280;2023-07-30T08:36:20;2.55;;;1.30;;
41512;SDS011;27244;59.940;30.280;2023-07-30T08:38:47;3.00;;;1.30;;
41512;SDS011;27244;59.940;30.280;2023-07-30T08:41:14;2.95;;;1.40;;
41512;SDS011;27244;59.940;30.280;2023-07-30T08:43:42;2.25;;;1.42;;
41512;SDS011;27244;59.940;30.280;2023-07-30T08:46:14;3.22;;;1.52;;
41512;SDS011;27244;59.940;30.280;2023-07-30T08:48:42;1.67;;;1.15;;
41512;SDS011;27244;59.940;30.280;2023-07-30T08:51:09;4.82;;;1.45;;
41512;SDS011;27244;59.940;30.280;2023-07-30T08:53:38;4.88;;;1.70;;
41512;SDS011;27244;59.940;30.280;2023-07-30T08:56:05;7.47;;;1.50;;
41512;SDS011;27244;59.940;30.280;2023-07-30T08:58:33;1.83;;;1.10;;
41512;SDS011;27244;59.940;30.280;2023-07-30T09:01:04;2.58;;;1.30;;
41512;SDS011;27244;59.940;30.280;2023-07-30T09:03:36;3.80;;;1.30;;
41512;SDS011;27244;59.940;30.280;2023-07-30T09:06:06;3.00;;;1.27;;
41512;SDS011;27244;59.940;30.280;2023-07-30T09:08:33;2.35;;;1.50;;
41512;SDS011;27244;59.940;30.280;2023-07-30T09:11:06;2.67;;;1.30;;
41512;SDS011;27244;59.940;30.280;2023-07-30T09:13:36;3.17;;;1.42;;
41512;SDS011;27244;59.940;30.280;2023-07-30T09:16:08;3.00;;;1.30;;
41512;SDS011;27244;59.940;30.280;2023-07-30T09:18:40;3.00;;;1.10;;
41512;SDS011;27244;59.940;30.280;2023-07-30T09:21:09;3.65;;;1.33;;
41512;SDS011;27244;59.940;30.280;2023-07-30T09:23:40;6.63;;;1.33;;
41512;SDS011;27244;59.940;30.280;2023-07-30T09:26:08;3.43;;;1.00;;
41512;SDS011;27244;59.940;30.280;2023-07-30T09:28:35;3.03;;;1.40;;
41512;SDS011;27244;59.940;30.280;2023-07-30T09:31:02;1.83;;;1.20;;
41512;SDS011;27244;59.940;30.280;2023-07-30T09:33:30;1.42;;;1.13;;
41512;SDS011;27244;59.940;30.280;2023-07-30T09:35:58;1.95;;;1.10;;
41512;SDS011;27244;59.940;30.280;2023-07-30T09:38:26;3.42;;;1.60;;
41512;SDS011;27244;59.940;30.280;2023-07-30T09:40:59;3.50;;;1.00;;
41512;SDS011;27244;59.940;30.280;2023-07-30T09:43:28;1.27;;;1.02;;
41512;SDS011;27244;59.940;30.280;2023-07-30T09:45:57;2.58;;;1.30;;
41512;SDS011;27244;59.940;30.280;2023-07-30T09:48:29;1.90;;;1.10;;
41512;SDS011;27244;59.940;30.280;2023-07-30T09:50:58;2.08;;;1.50;;
41512;SDS011;27244;59.940;30.280;2023-07-30T09:53:27;2.97;;;1.20;;
41512;SDS011;27244;59.940;30.280;2023-07-30T09:55:59;1.83;;;1.17;;
41512;SDS011;27244;59.940;30.280;2023-07-30T09:58:28;1.45;;;1.10;;
41512;SDS011;27244;59.940;30.280;2023-07-30T10:00:55;2.00;;;1.10;;
41512;SDS011;27244;59.940;30.280;2023-07-30T10:03:25;2.70;;;1.00;;
41512;SDS011;27244;59.940;30.280;2023-07-30T10:05:52;1.20;;;1.00;;
41512;SDS011;27244;59.940;30.280;2023-07-30T10:08:23;2.15;;;1.20;;
41512;SDS011;27244;59.940;30.280;2023-07-30T10:10:53;3.17;;;1.20;;
41512;SDS011;27244;59.940;30.280;2023-07-30T10:13:21;1.58;;;1.08;;
41512;SDS011;27244;59.940;30.280;2023-07-30T10:15:49;2.55;;;1.13;;
41512;SDS011;27244;59.940;30.280;2023-07-30T10:18:17;3.15;;;0.93;;
41512;SDS011;27244;59.940;30.280;2023-07-30T10:20:51;3.70;;;1.02;;
41512;SDS011;27244;59.940;30.280;2023-07-30T10:23:20;1.85;;;1.00;;
41512;SDS011;27244;59.940;30.280;2023-07-30T10:25:48;1.73;;;0.90;;
41512;SDS011;27244;59.940;30.280;2023-07-30T10:28:28;1.75;;;1.10;;
41512;SDS011;27244;59.940;30.280;2023-07-30T10:33:43;2.47;;;1.38;;
41512;SDS011;27244;59.940;30.280;2023-07-30T10:36:11;2.80;;;1.30;;
41512;SDS011;27244;59.940;30.280;2023-07-30T10:38:38;2.78;;;1.05;;
41512;SDS011;27244;59.940;30.280;2023-07-30T10:41:08;1.73;;;1.00;;
41512;SDS011;27244;59.940;30.280;2023-07-30T10:43:38;1.08;;;0.80;;
41512;SDS011;27244;59.940;30.280;2023-07-30T10:46:07;2.05;;;1.30;;
41512;SDS011;27244;59.940;30.280;2023-07-30T10:48:36;2.20;;;1.38;;
41512;SDS011;27244;59.940;30.280;2023-07-30T10:51:05;2.20;;;1.50;;
41512;SDS011;27244;59.940;30.280;2023-07-30T10:53:33;2.78;;;1.25;;
41512;SDS011;27244;59.940;30.280;2023-07-30T10:56:02;1.85;;;1.00;;
41512;SDS011;27244;59.940;30.280;2023-07-30T10:58:30;2.35;;;0.90;;
41512;SDS011;27244;59.940;30.280;2023-07-30T11:01:00;1.73;;;1.00;;
41512;SDS011;27244;59.940;30.280;2023-07-30T11:03:28;1.77;;;1.05;;
41512;SDS011;27244;59.940;30.280;2023-07-30T11:05:57;2.20;;;1.00;;
41512;SDS011;27244;59.940;30.280;2023-07-30T11:08:34;4.22;;;1.10;;
41512;SDS011;27244;59.940;30.280;2023-07-30T11:11:02;1.50;;;1.10;;
41512;SDS011;27244;59.940;30.280;2023-07-30T11:13:30;1.80;;;1.27;;
41512;SDS011;27244;59.940;30.280;2023-07-30T11:16:03;3.20;;;1.42;;
41512;SDS011;27244;59.940;30.280;2023-07-30T11:18:31;3.33;;;1.20;;
41512;SDS011;27244;59.940;30.280;2023-07-30T11:21:02;3.05;;;1.23;;
41512;SDS011;27244;59.940;30.280;2023-07-30T11:23:30;2.53;;;1.20;;
41512;SDS011;27244;59.940;30.280;2023-07-30T11:25:57;1.60;;;1.00;;
41512;SDS011;27244;59.940;30.280;2023-07-30T11:28:28;1.60;;;1.10;;
41512;SDS011;27244;59.940;30.280;2023-07-30T11:30:57;1.92;;;1.40;;
41512;SDS011;27244;59.940;30.280;2023-07-30T11:33:27;2.00;;;1.25;;
41512;SDS011;27244;59.940;30.280;2023-07-30T11:35:55;1.23;;;1.13;;
41512;SDS011;27244;59.940;30.280;2023-07-30T11:38:23;1.20;;;1.00;;
41512;SDS011;27244;59.940;30.280;2023-07-30T11:40:51;2.65;;;1.25;;
41512;SDS011;27244;59.940;30.280;2023-07-30T11:43:19;1.92;;;1.33;;
41512;SDS011;27244;59.940;30.280;2023-07-30T11:45:47;2.97;;;1.30;;
41512;SDS011;27244;59.940;30.280;2023-07-30T11:48:15;1.80;;;1.20;;
41512;SDS011;27244;59.940;30.280;2023-07-30T11:50:45;3.47;;;1.50;;
41512;SDS011;27244;59.940;30.280;2023-07-30T11:53:13;1.42;;;1.20;;
41512;SDS011;27244;59.940;30.280;2023-07-30T11:55:41;1.75;;;1.17;;
41512;SDS011;27244;59.940;30.280;2023-07-30T11:58:10;3.08;;;1.27;;
41512;SDS011;27244;59.940;30.280;2023-07-30T12:00:38;2.38;;;1.10;;
41512;SDS011;27244;59.940;30.280;2023-07-30T12:03:06;2.40;;;1.15;;
41512;SDS011;27244;59.940;30.280;2023-07-30T12:05:38;1.45;;;1.10;;
41512;SDS011;27244;59.940;30.280;2023-07-30T12:08:12;1.23;;;0.93;;
41512;SDS011;27244;59.940;30.280;2023-07-30T12:10:41;1.73;;;1.00;;
41512;SDS011;27244;59.940;30.280;2023-07-30T12:13:12;2.97;;;0.90;;
41512;SDS011;27244;59.940;30.280;2023-07-30T12:15:42;7.53;;;1.70;;
41512;SDS011;27244;59.940;30.280;2023-07-30T12:18:12;3.83;;;1.67;;
41512;SDS011;27244;59.940;30.280;2023-07-30T12:20:39;1.70;;;1.13;;
41512;SDS011;27244;59.940;30.280;2023-07-30T12:23:07;2.15;;;1.13;;
41512;SDS011;27244;59.940;30.280;2023-07-30T12:25:35;1.77;;;1.10;;
41512;SDS011;27244;59.940;30.280;2023-07-30T12:28:02;2.90;;;1.20;;
41512;SDS011;27244;59.940;30.280;2023-07-30T12:30:29;2.03;;;1.20;;
41512;SDS011;27244;59.940;30.280;2023-07-30T12:32:56;1.80;;;1.10;;
41512;SDS011;27244;59.940;30.280;2023-07-30T12:35:23;5.15;;;1.33;;
41512;SDS011;27244;59.940;30.280;2023-07-30T12:37:51;4.18;;;1.30;;
41512;SDS011;27244;59.940;30.280;2023-07-30T12:40:19;4.63;;;1.73;;
41512;SDS011;27244;59.940;30.280;2023-07-30T12:42:46;5.00;;;1.45;;
41512;SDS011;27244;59.940;30.280;2023-07-30T12:45:14;4.72;;;1.83;;
41512;SDS011;27244;59.940;30.280;2023-07-30T12:47:41;2.95;;;1.80;;
41512;SDS011;27244;59.940;30.280;2023-07-30T12:50:08;3.55;;;1.63;;
41512;SDS011;27244;59.940;30.280;2023-07-30T12:52:36;4.53;;;1.42;;
41512;SDS011;27244;59.940;30.280;2023-07-30T12:55:03;4.57;;;1.48;;
41512;SDS011;27244;59.940;30.280;2023-07-30T12:57:33;3.33;;;2.00;;
41512;SDS011;27244;59.940;30.280;2023-07-30T13:00:00;5.40;;;1.77;;
41512;SDS011;27244;59.940;30.280;2023-07-30T13:02:29;2.83;;;1.63;;
41512;SDS011;27244;59.940;30.280;2023-07-30T13:04:58;6.50;;;2.03;;
41512;SDS011;27244;59.940;30.280;2023-07-30T13:07:25;2.33;;;1.63;;
41512;SDS011;27244;59.940;30.280;2023-07-30T13:10:02;4.72;;;1.83;;
41512;SDS011;27244;59.940;30.280;2023-07-30T13:12:30;5.20;;;2.03;;
41512;SDS011;27244;59.940;30.280;2023-07-30T13:14:58;4.65;;;2.20;;
41512;SDS011;27244;59.940;30.280;2023-07-30T13:17:26;3.38;;;1.92;;
41512;SDS011;27244;59.940;30.280;2023-07-30T13:19:53;3.10;;;1.83;;
41512;SDS011;27244;59.940;30.280;2023-07-30T13:22:20;7.05;;;1.98;;
41512;SDS011;27244;59.940;30.280;2023-07-30T13:24:47;4.57;;;2.00;;
41512;SDS011;27244;59.940;30.280;2023-07-30T13:27:14;2.88;;;1.90;;
41512;SDS011;27244;59.940;30.280;2023-07-30T13:29:41;3.45;;;1.90;;
41512;SDS011;27244;59.940;30.280;2023-07-30T13:32:10;5.80;;;2.35;;
41512;SDS011;27244;59.940;30.280;2023-07-30T13:34:37;2.85;;;1.90;;
41512;SDS011;27244;59.940;30.280;2023-07-30T13:37:05;4.90;;;2.05;;
41512;SDS011;27244;59.940;30.280;2023-07-30T13:39:32;4.38;;;2.22;;
41512;SDS011;27244;59.940;30.280;2023-07-30T13:41:59;3.25;;;2.38;;
41512;SDS011;27244;59.940;30.280;2023-07-30T13:44:29;3.67;;;2.30;;
41512;SDS011;27244;59.940;30.280;2023-07-30T13:46:56;4.97;;;2.15;;
41512;SDS011;27244;59.940;30.280;2023-07-30T13:49:24;3.60;;;2.10;;
41512;SDS011;27244;59.940;30.280;2023-07-30T13:51:52;3.30;;;1.90;;
41512;SDS011;27244;59.940;30.280;2023-07-30T13:54:19;5.70;;;1.95;;
41512;SDS011;27244;59.940;30.280;2023-07-30T13:56:46;4.22;;;2.45;;
41512;SDS011;27244;59.940;30.280;2023-07-30T13:59:13;2.92;;;1.92;;
41512;SDS011;27244;59.940;30.280;2023-07-30T14:01:40;4.78;;;2.08;;
41512;SDS011;27244;59.940;30.280;2023-07-30T14:04:07;4.43;;;2.40;;
41512;SDS011;27244;59.940;30.280;2023-07-30T14:06:35;3.70;;;2.05;;
41512;SDS011;27244;59.940;30.280;2023-07-30T14:09:03;5.45;;;2.72;;
41512;SDS011;27244;59.940;30.280;2023-07-30T14:11:30;5.90;;;2.55;;
41512;SDS011;27244;59.940;30.280;2023-07-30T14:13:57;5.78;;;2.30;;
41512;SDS011;27244;59.940;30.280;2023-07-30T14:16:24;4.10;;;2.35;;
41512;SDS011;27244;59.940;30.280;2023-07-30T14:18:52;5.75;;;2.10;;
41512;SDS011;27244;59.940;30.280;2023-07-30T14:21:19;5.35;;;2.55;;
41512;SDS011;27244;59.940;30.280;2023-07-30T14:23:47;5.45;;;2.53;;
41512;SDS011;27244;59.940;30.280;2023-07-30T14:26:14;4.45;;;2.50;;
41512;SDS011;27244;59.940;30.280;2023-07-30T14:28:42;5.05;;;2.78;;
41512;SDS011;27244;59.940;30.280;2023-07-30T14:31:09;5.18;;;2.35;;
41512;SDS011;27244;59.940;30.280;2023-07-30T14:33:36;3.65;;;2.30;;
41512;SDS011;27244;59.940;30.280;2023-07-30T14:36:03;6.50;;;2.50;;
41512;SDS011;27244;59.940;30.280;2023-07-30T14:38:30;4.47;;;2.28;;
41512;SDS011;27244;59.940;30.280;2023-07-30T14:41:01;7.47;;;2.65;;